Time;durP1;ratioP1;P1;durP2;ratioP2;P2;SDS_P1;SDS_P2;PMS_P1;PMS_P2;Temp;Humidity;BMP_temperature;BMP_pressure;BME280_temperature;BME280_humidity;BME280_pressure;Samples;Min_cycle;Max_cycle;Signal;HPM_P1;HPM_P2
2024/03/21 00:00:10;;;;;;;11.80;8.30;;;14.10;99.90;;;;;;5099637;28;20517;-58
2024/03/21 00:02:46;;;;;;;6.90;6.40;;;14.00;99.90;;;;;;5113384;28;20197;-58
2024/03/21 00:05:16;;;;;;;7.40;6.80;;;14.00;99.90;;;;;;5097863;28;20926;-58
2024/03/21 00:07:46;;;;;;;7.90;7.30;;;14.00;99.90;;;;;;5097732;28;20490;-58
2024/03/21 00:10:19;;;;;;;6.80;6.30;;;14.00;99.90;;;;;;5113626;28;20729;-58
2024/03/21 00:12:46;;;;;;;7.27;6.53;;;14.00;99.90;;;;;;5072473;28;20877;-58
2024/03/21 00:15:12;;;;;;;9.47;6.60;;;13.90;99.90;;;;;;5094411;28;20436;-58
2024/03/21 00:17:38;;;;;;;6.63;6.10;;;13.90;99.90;;;;;;5111270;28;20891;-58
2024/03/21 00:20:10;;;;;;;7.90;7.13;;;13.90;99.90;;;;;;5099514;28;20419;-58
2024/03/21 00:22:40;;;;;;;7.00;6.50;;;13.90;99.90;;;;;;5105680;28;20180;-58
2024/03/21 00:25:07;;;;;;;6.53;6.03;;;13.90;99.90;;;;;;5112266;28;20423;-58
2024/03/21 00:27:34;;;;;;;7.00;6.50;;;13.80;99.90;;;;;;5113023;28;20451;-58
2024/03/21 00:30:04;;;;;;;7.70;7.10;;;13.80;99.90;;;;;;5111892;28;20431;-58
2024/03/21 00:32:30;;;;;;;7.57;6.97;;;13.70;99.90;;;;;;5106136;28;20499;-58
2024/03/21 00:34:56;;;;;;;7.00;6.40;;;13.70;99.90;;;;;;5092165;28;20534;-58
2024/03/21 00:37:22;;;;;;;7.33;6.80;;;13.70;99.90;;;;;;5092827;28;20515;-58
2024/03/21 00:39:48;;;;;;;7.80;7.00;;;13.60;99.90;;;;;;5092225;28;20184;-58
2024/03/21 00:42:15;;;;;;;8.00;7.20;;;13.60;99.90;;;;;;5092031;28;20565;-58
2024/03/21 00:44:41;;;;;;;10.33;8.60;;;13.60;99.90;;;;;;5092087;28;20467;-58
2024/03/21 00:47:07;;;;;;;7.50;6.90;;;13.50;99.90;;;;;;5094886;28;20458;-59
2024/03/21 00:49:34;;;;;;;7.50;6.90;;;13.50;99.90;;;;;;5095080;28;20425;-58
2024/03/21 00:52:00;;;;;;;7.70;6.90;;;13.50;99.90;;;;;;5113425;28;20427;-58
2024/03/21 00:54:25;;;;;;;7.50;7.00;;;13.40;99.90;;;;;;5103598;28;20464;-58
2024/03/21 00:56:52;;;;;;;7.63;6.93;;;13.40;99.90;;;;;;5081275;28;20425;-58
2024/03/21 00:59:19;;;;;;;6.90;6.30;;;13.30;99.90;;;;;;5112865;28;20234;-58
2024/03/21 01:01:45;;;;;;;7.30;6.77;;;13.30;99.90;;;;;;5110464;28;20901;-58
2024/03/21 01:04:11;;;;;;;7.90;7.07;;;13.30;99.90;;;;;;5111383;28;20510;-58
2024/03/21 01:06:37;;;;;;;7.70;7.00;;;13.30;99.90;;;;;;5111955;28;20176;-58
2024/03/21 01:09:02;;;;;;;9.70;7.90;;;13.30;99.90;;;;;;5111006;28;20176;-58
2024/03/21 01:11:28;;;;;;;7.43;6.80;;;13.30;99.90;;;;;;5108922;28;20178;-58
2024/03/21 01:13:54;;;;;;;7.60;7.00;;;13.30;99.90;;;;;;5074464;28;20184;-58
2024/03/21 01:16:20;;;;;;;7.23;6.63;;;13.20;99.90;;;;;;5104464;28;20514;-58
2024/03/21 01:18:46;;;;;;;7.70;6.97;;;13.20;99.90;;;;;;5110351;28;20436;-58
2024/03/21 01:21:11;;;;;;;7.20;6.70;;;13.20;99.90;;;;;;5094918;28;20165;-58
2024/03/21 01:23:37;;;;;;;7.50;6.80;;;13.20;99.90;;;;;;5110086;28;20221;-58
2024/03/21 01:26:04;;;;;;;8.30;7.13;;;13.20;99.90;;;;;;5110871;28;20189;-58
2024/03/21 01:28:30;;;;;;;7.43;6.70;;;13.30;99.90;;;;;;5111855;28;20546;-59
2024/03/21 01:30:59;;;;;;;6.83;6.33;;;13.30;99.90;;;;;;5111115;28;20451;-58
2024/03/21 01:33:26;;;;;;;7.00;6.40;;;13.30;99.90;;;;;;5110770;28;20526;-58
2024/03/21 01:35:52;;;;;;;7.67;7.00;;;13.30;99.90;;;;;;5109574;28;20397;-58
2024/03/21 01:38:17;;;;;;;7.90;6.40;;;13.30;99.90;;;;;;5109047;28;20461;-58
2024/03/21 01:40:43;;;;;;;7.87;6.60;;;13.20;99.90;;;;;;5109978;28;20186;-58
2024/03/21 01:43:21;;;;;;;7.70;6.50;;;13.20;99.90;;;;;;5110786;28;20619;-58
2024/03/21 01:46:09;;;;;;;7.17;6.50;;;13.20;99.90;;;;;;5092836;28;20235;-58
2024/03/21 01:48:37;;;;;;;7.40;6.80;;;13.20;99.90;;;;;;5106709;28;20460;-58
2024/03/21 01:51:03;;;;;;;7.33;6.67;;;13.20;99.90;;;;;;5110793;28;20432;-58
2024/03/21 01:53:29;;;;;;;8.17;7.47;;;13.30;99.90;;;;;;5110250;28;20488;-59
2024/03/21 01:55:55;;;;;;;7.47;6.77;;;13.30;99.90;;;;;;5112353;28;20390;-58
2024/03/21 01:58:22;;;;;;;8.13;7.50;;;13.30;99.90;;;;;;5110549;28;20432;-58
2024/03/21 02:00:48;;;;;;;7.63;6.83;;;13.30;99.90;;;;;;5109252;28;20429;-58
2024/03/21 02:03:14;;;;;;;7.63;7.03;;;13.20;99.90;;;;;;5073566;28;20414;-58
2024/03/21 02:05:41;;;;;;;7.30;6.70;;;13.20;99.90;;;;;;5111684;28;20397;-58
2024/03/21 02:08:08;;;;;;;7.30;6.70;;;13.20;99.90;;;;;;5084607;28;20467;-58
2024/03/21 02:10:35;;;;;;;7.90;7.10;;;13.20;99.90;;;;;;5109667;28;20482;-59
2024/03/21 02:13:02;;;;;;;7.53;6.80;;;13.30;99.90;;;;;;5108305;28;20535;-58
2024/03/21 02:15:28;;;;;;;7.83;7.13;;;13.20;99.90;;;;;;5110683;28;20779;-58
2024/03/21 02:17:54;;;;;;;8.33;7.23;;;13.20;99.90;;;;;;5091504;28;20418;-58
2024/03/21 02:20:19;;;;;;;6.90;6.30;;;13.20;99.90;;;;;;5114898;28;20398;-58
2024/03/21 02:22:45;;;;;;;7.30;6.60;;;13.20;99.90;;;;;;5107246;28;20919;-58
2024/03/21 02:25:12;;;;;;;7.70;7.03;;;13.20;99.90;;;;;;5101751;28;20171;-58
2024/03/21 02:27:39;;;;;;;8.40;7.60;;;13.10;99.90;;;;;;5099599;28;20205;-59
2024/03/21 02:30:09;;;;;;;8.10;7.50;;;13.10;99.90;;;;;;5116179;28;20413;-58
2024/03/21 02:32:36;;;;;;;8.90;8.20;;;13.10;99.90;;;;;;5113477;28;20519;-58
2024/03/21 02:35:03;;;;;;;9.07;8.17;;;13.10;99.90;;;;;;5104532;28;20436;-58
2024/03/21 02:37:30;;;;;;;9.10;8.03;;;13.00;99.90;;;;;;5100731;28;20464;-58
2024/03/21 02:39:55;;;;;;;9.63;8.80;;;13.10;99.90;;;;;;5106044;28;20428;-58
2024/03/21 02:42:22;;;;;;;13.73;8.43;;;13.00;99.90;;;;;;5114066;28;21000;-58
2024/03/21 02:44:49;;;;;;;9.80;8.80;;;13.00;99.90;;;;;;5115117;28;20429;-58
2024/03/21 02:47:17;;;;;;;9.37;8.60;;;13.10;99.90;;;;;;5108421;28;20834;-58
2024/03/21 02:49:43;;;;;;;11.20;9.03;;;13.10;99.90;;;;;;5113778;28;20426;-58
2024/03/21 02:52:09;;;;;;;10.03;9.13;;;13.10;99.90;;;;;;5103502;28;20430;-58
2024/03/21 02:54:35;;;;;;;9.53;8.60;;;13.00;99.90;;;;;;5103075;28;20425;-58
2024/03/21 02:57:11;;;;;;;10.20;9.30;;;13.00;99.90;;;;;;5115875;28;20426;-58
2024/03/21 02:59:37;;;;;;;10.50;9.40;;;13.10;99.90;;;;;;5112831;28;20443;-58
2024/03/21 03:02:03;;;;;;;10.87;9.87;;;13.10;99.90;;;;;;5113725;28;20738;-58
2024/03/21 03:04:30;;;;;;;12.53;9.63;;;13.10;99.90;;;;;;5115561;28;20405;-58
2024/03/21 03:06:55;;;;;;;10.50;9.30;;;13.20;99.90;;;;;;5111876;28;20564;-58
2024/03/21 03:09:21;;;;;;;10.00;9.10;;;13.20;99.90;;;;;;5113528;28;20484;-58
2024/03/21 03:11:47;;;;;;;10.20;9.20;;;13.20;99.90;;;;;;5114648;28;20596;-58
2024/03/21 03:14:13;;;;;;;9.53;8.80;;;13.20;99.90;;;;;;5113280;28;20486;-58
2024/03/21 03:16:38;;;;;;;10.20;9.20;;;13.20;99.90;;;;;;5106883;28;20631;-58
2024/03/21 03:19:05;;;;;;;9.30;8.50;;;13.20;99.90;;;;;;5094867;28;20176;-58
2024/03/21 03:21:31;;;;;;;9.80;8.93;;;13.20;99.90;;;;;;5102477;28;20620;-58
2024/03/21 03:23:57;;;;;;;10.50;9.40;;;13.20;99.90;;;;;;5102601;28;20451;-58
2024/03/21 03:26:23;;;;;;;9.53;8.67;;;13.20;99.90;;;;;;5096553;28;20424;-58
2024/03/21 03:28:49;;;;;;;9.77;8.93;;;13.20;99.90;;;;;;5105575;28;20592;-58
2024/03/21 03:31:15;;;;;;;12.97;10.40;;;13.20;99.90;;;;;;5103073;28;20429;-58
2024/03/21 03:36:26;;;;;;;12.27;10.63;;;13.20;99.90;;;;;;5114879;28;20449;-58
2024/03/21 03:38:52;;;;;;;12.13;10.90;;;13.20;99.90;;;;;;5112151;28;20436;-58
2024/03/21 03:41:18;;;;;;;10.23;9.30;;;13.20;99.90;;;;;;5110827;28;20425;-58
2024/03/21 03:43:43;;;;;;;13.23;11.30;;;13.30;99.90;;;;;;5093357;28;20406;-58
2024/03/21 03:46:09;;;;;;;12.93;11.63;;;13.30;99.90;;;;;;5111216;28;20435;-58
2024/03/21 03:48:35;;;;;;;15.00;12.20;;;13.30;99.90;;;;;;5112369;28;20210;-59
2024/03/21 03:51:01;;;;;;;13.20;11.27;;;13.30;99.90;;;;;;5112025;28;20182;-58
2024/03/21 03:53:26;;;;;;;13.50;12.10;;;13.30;99.90;;;;;;5114634;28;20185;-58
2024/03/21 03:55:52;;;;;;;13.30;11.90;;;13.30;99.90;;;;;;5111824;28;20425;-58
2024/03/21 03:58:19;;;;;;;13.17;11.90;;;13.30;99.90;;;;;;5112634;28;20179;-58
2024/03/21 04:00:45;;;;;;;12.97;11.73;;;13.30;99.90;;;;;;5112465;28;20428;-58
2024/03/21 04:03:11;;;;;;;12.90;11.70;;;13.20;99.90;;;;;;5114343;28;20398;-58
2024/03/21 04:05:38;;;;;;;14.03;12.60;;;13.30;99.90;;;;;;5113938;28;20165;-58
2024/03/21 04:08:04;;;;;;;14.83;11.80;;;13.30;99.90;;;;;;5098307;28;20654;-59
2024/03/21 04:10:30;;;;;;;13.00;11.70;;;13.40;99.90;;;;;;5097335;28;20443;-58
2024/03/21 04:12:55;;;;;;;13.27;11.97;;;13.40;99.90;;;;;;5100796;28;20449;-59
2024/03/21 04:15:21;;;;;;;12.33;11.20;;;13.40;99.90;;;;;;5100199;28;20529;-58
2024/03/21 04:17:50;;;;;;;11.43;10.47;;;13.40;99.90;;;;;;5113354;28;20176;-58
2024/03/21 04:20:15;;;;;;;12.10;11.00;;;13.40;99.90;;;;;;5112154;28;20179;-58
2024/03/21 04:22:41;;;;;;;12.77;11.30;;;13.50;99.90;;;;;;5111073;28;20423;-58
2024/03/21 04:25:07;;;;;;;13.23;11.70;;;13.50;99.90;;;;;;5111901;28;20177;-58
2024/03/21 04:27:33;;;;;;;11.90;10.60;;;13.50;99.90;;;;;;5073336;28;20221;-58
2024/03/21 04:30:01;;;;;;;10.83;9.83;;;13.40;99.90;;;;;;5091733;28;20458;-58
2024/03/21 04:32:27;;;;;;;9.60;8.83;;;13.50;99.90;;;;;;5087585;28;20619;-58
2024/03/21 04:34:53;;;;;;;9.53;8.53;;;13.50;99.90;;;;;;5113036;28;20474;-58
2024/03/21 04:37:19;;;;;;;9.23;8.53;;;13.40;99.90;;;;;;5110948;28;20261;-58
2024/03/21 04:39:47;;;;;;;11.07;10.07;;;13.40;99.90;;;;;;5110858;28;20219;-58
2024/03/21 04:42:17;;;;;;;11.30;10.20;;;13.40;99.90;;;;;;5112984;28;20394;-58
2024/03/21 04:44:43;;;;;;;10.93;9.77;;;13.40;99.90;;;;;;5111072;28;20423;-58
2024/03/21 04:47:10;;;;;;;10.83;9.97;;;13.40;99.90;;;;;;5111529;28;20454;-58
2024/03/21 04:49:36;;;;;;;13.00;11.80;;;13.40;99.90;;;;;;5111294;28;20427;-58
2024/03/21 04:52:02;;;;;;;15.90;13.00;;;13.40;99.90;;;;;;5112734;28;20416;-58
2024/03/21 04:54:28;;;;;;;15.10;13.50;;;13.50;99.90;;;;;;5112298;28;20477;-58
2024/03/21 04:56:54;;;;;;;16.07;14.20;;;13.60;99.90;;;;;;5107523;28;20501;-58
2024/03/21 04:59:25;;;;;;;16.10;14.33;;;13.60;99.90;;;;;;5092989;28;20168;-58
2024/03/21 05:01:51;;;;;;;16.90;13.00;;;13.70;99.90;;;;;;5105936;28;20190;-59
2024/03/21 05:04:17;;;;;;;16.93;14.40;;;13.70;99.90;;;;;;5103986;28;20425;-58
2024/03/21 05:06:43;;;;;;;17.50;14.37;;;13.70;99.90;;;;;;5091044;28;20418;-59
2024/03/21 05:09:09;;;;;;;13.83;12.37;;;13.80;99.90;;;;;;5093752;28;20218;-58
2024/03/21 05:11:34;;;;;;;14.00;12.70;;;13.80;99.90;;;;;;5106352;28;20177;-58
2024/03/21 05:14:01;;;;;;;14.43;13.03;;;13.80;99.90;;;;;;5110300;28;20502;-58
2024/03/21 05:16:28;;;;;;;16.20;14.60;;;13.80;99.90;;;;;;5111294;28;20164;-58
2024/03/21 05:18:55;;;;;;;16.07;13.57;;;13.80;99.90;;;;;;5112200;28;20425;-58
2024/03/21 05:21:21;;;;;;;17.27;15.57;;;13.80;99.90;;;;;;5110787;28;20975;-58
2024/03/21 05:23:46;;;;;;;17.43;14.83;;;13.80;99.90;;;;;;5097853;28;20429;-59
2024/03/21 05:26:12;;;;;;;18.27;16.40;;;13.70;99.90;;;;;;5112904;28;20405;-58
2024/03/21 05:28:38;;;;;;;19.57;17.47;;;13.70;99.90;;;;;;5092582;28;20211;-58
2024/03/21 05:31:24;;;;;;;19.67;17.63;;;13.70;99.90;;;;;;5093971;28;20188;-58
2024/03/21 05:33:50;;;;;;;23.40;20.93;;;13.70;99.90;;;;;;5097653;28;20554;-58
2024/03/21 05:36:16;;;;;;;23.80;19.97;;;13.60;99.90;;;;;;5108033;28;20477;-58
2024/03/21 05:38:46;;;;;;;29.20;21.73;;;13.60;99.90;;;;;;5110377;28;20427;-59
2024/03/21 05:41:12;;;;;;;23.47;19.87;;;13.60;99.90;;;;;;5100073;28;20499;-58
2024/03/21 05:43:39;;;;;;;21.77;18.10;;;13.70;99.90;;;;;;5111509;28;20538;-58
2024/03/21 05:46:05;;;;;;;22.50;18.80;;;13.70;99.90;;;;;;5096116;28;20434;-58
2024/03/21 05:48:32;;;;;;;21.90;17.43;;;13.70;99.90;;;;;;5072664;28;20844;-58
2024/03/21 05:50:58;;;;;;;21.90;19.10;;;13.70;99.90;;;;;;5104797;28;20938;-58
2024/03/21 05:53:24;;;;;;;23.60;18.30;;;13.80;99.90;;;;;;5102218;28;20883;-58
2024/03/21 05:55:59;;;;;;;22.93;19.50;;;13.80;99.90;;;;;;5105765;28;20450;-59
2024/03/21 05:58:24;;;;;;;25.03;18.90;;;13.80;99.90;;;;;;5098681;28;20425;-58
2024/03/21 06:01:03;;;;;;;21.03;18.80;;;13.70;99.90;;;;;;5097052;28;20964;-59
2024/03/21 06:03:29;;;;;;;22.00;18.30;;;13.70;99.90;;;;;;5106237;28;20216;-59
2024/03/21 06:05:55;;;;;;;24.80;19.10;;;13.70;99.90;;;;;;5095743;28;20409;-59
2024/03/21 06:08:21;;;;;;;23.30;18.40;;;13.80;99.90;;;;;;5075814;28;20840;-60
2024/03/21 06:10:47;;;;;;;24.97;19.43;;;13.90;99.90;;;;;;5094544;28;20511;-62
2024/03/21 06:13:13;;;;;;;21.50;19.30;;;13.90;99.90;;;;;;5114522;28;20181;-64
2024/03/21 06:15:38;;;;;;;22.83;18.53;;;13.90;99.90;;;;;;5116562;28;20533;-62
2024/03/21 06:18:04;;;;;;;26.87;20.97;;;13.90;99.90;;;;;;5087793;28;20293;-62
2024/03/21 06:20:30;;;;;;;21.67;19.37;;;14.00;99.90;;;;;;5105972;28;20531;-62
2024/03/21 06:22:56;;;;;;;21.20;18.07;;;14.00;99.90;;;;;;5115529;28;20164;-62
2024/03/21 06:25:22;;;;;;;22.47;17.97;;;14.00;99.90;;;;;;5107201;28;20433;-63
2024/03/21 06:27:49;;;;;;;21.23;17.27;;;14.00;99.90;;;;;;5115321;28;20455;-62
2024/03/21 06:30:15;;;;;;;22.47;17.23;;;14.00;99.90;;;;;;5106458;28;21738;-66
2024/03/21 06:32:42;;;;;;;28.53;17.50;;;14.00;99.90;;;;;;5076721;28;20418;-63
2024/03/21 06:35:08;;;;;;;29.73;17.63;;;14.10;99.90;;;;;;5094348;28;20402;-63
2024/03/21 06:37:34;;;;;;;23.43;17.00;;;14.10;99.90;;;;;;5097690;28;20815;-62
2024/03/21 06:40:04;;;;;;;20.37;16.10;;;14.10;99.90;;;;;;5092942;28;20426;-62
2024/03/21 06:42:30;;;;;;;19.90;15.77;;;14.10;99.90;;;;;;5115882;28;20172;-63
2024/03/21 06:44:56;;;;;;;22.50;16.27;;;14.10;99.90;;;;;;5097624;28;20424;-62
2024/03/21 06:47:23;;;;;;;20.40;16.43;;;14.10;99.90;;;;;;5104937;28;20495;-62
2024/03/21 06:49:49;;;;;;;20.73;15.00;;;14.20;99.90;;;;;;5113118;28;20168;-60
2024/03/21 06:52:15;;;;;;;18.03;15.20;;;14.20;99.90;;;;;;5096181;28;20428;-62
2024/03/21 06:54:41;;;;;;;19.83;16.73;;;14.20;99.90;;;;;;5102498;28;20598;-62
2024/03/21 06:57:07;;;;;;;20.97;16.70;;;14.30;99.90;;;;;;5106108;28;20166;-63
2024/03/21 06:59:32;;;;;;;29.40;17.10;;;14.30;99.90;;;;;;5110633;28;20437;-63
2024/03/21 07:01:58;;;;;;;20.80;16.80;;;14.40;99.90;;;;;;5105311;28;20189;-62
2024/03/21 07:04:24;;;;;;;21.17;16.40;;;14.40;99.90;;;;;;5111795;28;20183;-62
2024/03/21 07:06:50;;;;;;;19.83;16.57;;;14.40;99.90;;;;;;5098668;28;20187;-62
2024/03/21 07:09:16;;;;;;;18.73;16.87;;;14.40;99.90;;;;;;5106678;28;20254;-63
2024/03/21 07:11:42;;;;;;;22.73;18.17;;;14.40;99.90;;;;;;5109585;28;20184;-63
2024/03/21 07:14:09;;;;;;;23.50;19.80;;;14.40;99.90;;;;;;5095343;28;21013;-63
2024/03/21 07:16:35;;;;;;;23.27;17.77;;;14.40;99.90;;;;;;5115159;28;20399;-62
2024/03/21 07:19:01;;;;;;;17.87;16.07;;;14.40;99.90;;;;;;5112260;28;20435;-62
2024/03/21 07:21:27;;;;;;;17.20;14.50;;;14.40;99.90;;;;;;5113299;28;20423;-62
2024/03/21 07:23:53;;;;;;;18.20;15.03;;;14.30;99.90;;;;;;5105191;28;20224;-64
2024/03/21 07:26:18;;;;;;;15.43;13.83;;;14.30;99.90;;;;;;5095005;28;20455;-63
2024/03/21 07:28:44;;;;;;;16.97;15.17;;;14.20;99.90;;;;;;5099574;28;20293;-63
2024/03/21 07:31:10;;;;;;;24.70;16.13;;;14.20;99.90;;;;;;5102910;28;20219;-63
2024/03/21 07:33:35;;;;;;;17.47;15.17;;;14.30;99.90;;;;;;5097329;28;20497;-63
2024/03/21 07:36:02;;;;;;;15.97;14.37;;;14.30;99.90;;;;;;5095728;28;20177;-63
2024/03/21 07:38:28;;;;;;;15.87;14.20;;;14.30;99.90;;;;;;5113586;28;20169;-64
2024/03/21 07:40:58;;;;;;;15.37;13.80;;;14.30;99.90;;;;;;5108050;28;20440;-63
2024/03/21 07:43:24;;;;;;;17.20;15.43;;;14.20;99.90;;;;;;5113018;28;20186;-62
2024/03/21 07:45:50;;;;;;;17.93;16.00;;;14.20;99.90;;;;;;5114242;28;20400;-59
2024/03/21 07:48:16;;;;;;;17.20;13.93;;;14.20;99.90;;;;;;5112452;28;20512;-62
2024/03/21 07:50:42;;;;;;;19.53;15.10;;;14.20;99.90;;;;;;5104898;28;20432;-64
2024/03/21 07:53:08;;;;;;;15.30;13.67;;;14.30;99.90;;;;;;5103078;28;20442;-65
2024/03/21 07:55:34;;;;;;;17.43;15.37;;;14.30;99.90;;;;;;5113393;28;20181;-63
2024/03/21 07:58:01;;;;;;;16.53;14.70;;;14.30;99.90;;;;;;5102722;28;20439;-62
2024/03/21 08:00:28;;;;;;;15.47;14.00;;;14.30;99.90;;;;;;5097725;28;20436;-61
2024/03/21 08:02:57;;;;;;;15.40;14.00;;;14.40;99.90;;;;;;5093691;28;20529;-62
2024/03/21 08:05:23;;;;;;;15.57;14.00;;;14.30;99.90;;;;;;5063912;28;20572;-62
2024/03/21 08:07:49;;;;;;;16.00;14.40;;;14.30;99.90;;;;;;5075476;28;20468;-61
2024/03/21 08:10:15;;;;;;;16.37;14.47;;;14.40;99.90;;;;;;5096934;28;20182;-63
2024/03/21 08:12:41;;;;;;;16.20;14.17;;;14.40;99.90;;;;;;5093196;28;20179;-63
2024/03/21 08:15:10;;;;;;;14.17;12.77;;;14.50;99.90;;;;;;5106481;28;20449;-63
2024/03/21 08:17:35;;;;;;;15.73;13.77;;;14.50;99.90;;;;;;5099704;28;20436;-63
2024/03/21 08:20:03;;;;;;;12.63;11.43;;;14.40;99.90;;;;;;5111366;28;20430;-63
2024/03/21 08:22:28;;;;;;;13.40;10.93;;;14.40;99.90;;;;;;5111466;28;20181;-63
2024/03/21 08:24:54;;;;;;;11.67;10.67;;;14.50;99.90;;;;;;5092900;28;20934;-61
2024/03/21 08:27:20;;;;;;;14.33;11.10;;;14.50;99.90;;;;;;5099885;28;20232;-63
2024/03/21 08:29:49;;;;;;;14.00;11.70;;;14.60;99.90;;;;;;5104933;28;20214;-63
2024/03/21 08:32:15;;;;;;;13.67;12.33;;;14.70;99.90;;;;;;5103727;28;20193;-62
2024/03/21 08:34:41;;;;;;;13.73;12.43;;;14.70;99.90;;;;;;5098786;28;20425;-67
2024/03/21 08:37:07;;;;;;;13.17;12.00;;;14.90;99.90;;;;;;5109246;28;20239;-62
2024/03/21 08:39:33;;;;;;;19.50;12.50;;;15.20;99.90;;;;;;5093929;28;20193;-64
2024/03/21 08:41:58;;;;;;;16.20;9.70;;;15.50;99.90;;;;;;5092602;28;20430;-62
2024/03/21 08:44:24;;;;;;;15.37;11.50;;;15.80;99.90;;;;;;5092869;28;20187;-63
2024/03/21 08:46:52;;;;;;;13.00;11.73;;;16.10;99.90;;;;;;5096656;28;20313;-63
2024/03/21 08:49:18;;;;;;;12.27;11.13;;;16.40;99.90;;;;;;5090582;28;20183;-63
2024/03/21 08:51:44;;;;;;;11.97;10.87;;;16.60;99.90;;;;;;5091623;28;20418;-62
2024/03/21 08:54:09;;;;;;;10.77;9.67;;;16.80;99.90;;;;;;5089506;28;20257;-63
2024/03/21 08:56:35;;;;;;;10.60;9.70;;;17.00;99.90;;;;;;5089122;28;20669;-62
2024/03/21 08:59:01;;;;;;;11.20;10.20;;;17.10;99.90;;;;;;5093062;28;20192;-62
2024/03/21 09:01:27;;;;;;;11.90;10.80;;;17.30;99.90;;;;;;5093058;28;20263;-63
2024/03/21 09:03:53;;;;;;;10.40;9.40;;;17.40;99.90;;;;;;5093264;28;20224;-61
2024/03/21 09:06:18;;;;;;;14.97;13.37;;;17.50;99.90;;;;;;5098977;28;20173;-63
2024/03/21 09:08:44;;;;;;;10.73;9.73;;;17.70;99.90;;;;;;5091228;28;20456;-63
2024/03/21 09:11:10;;;;;;;11.10;9.90;;;18.00;99.90;;;;;;5100887;28;20263;-62
2024/03/21 09:13:36;;;;;;;9.63;8.90;;;17.80;98.40;;;;;;5093756;28;20499;-63
2024/03/21 09:16:02;;;;;;;12.33;8.27;;;17.50;98.60;;;;;;5092375;28;20418;-63
2024/03/21 09:18:28;;;;;;;9.90;8.90;;;17.30;99.00;;;;;;5093581;28;20898;-63
2024/03/21 09:20:56;;;;;;;11.00;9.93;;;17.10;99.90;;;;;;5091765;28;20497;-62
2024/03/21 09:23:24;;;;;;;9.40;8.57;;;16.90;99.90;;;;;;5099894;28;20183;-62
2024/03/21 09:25:57;;;;;;;9.47;8.67;;;16.80;99.90;;;;;;5110972;28;20524;-62
2024/03/21 09:28:22;;;;;;;10.17;9.27;;;16.70;99.90;;;;;;5090403;28;20740;-62
2024/03/21 09:30:48;;;;;;;9.30;8.60;;;16.50;99.90;;;;;;5091093;28;20428;-62
2024/03/21 09:33:14;;;;;;;13.80;12.10;;;16.40;99.90;;;;;;5091885;28;20172;-62
2024/03/21 09:35:40;;;;;;;14.30;13.00;;;16.30;99.90;;;;;;5083652;28;20195;-62
2024/03/21 09:38:05;;;;;;;13.67;12.40;;;16.20;99.90;;;;;;5080038;28;20216;-62
2024/03/21 09:40:32;;;;;;;13.70;11.17;;;16.20;99.90;;;;;;5091594;28;20184;-66
2024/03/21 09:42:58;;;;;;;11.40;10.37;;;16.30;99.90;;;;;;5091262;28;20793;-63
2024/03/21 09:45:24;;;;;;;11.80;10.70;;;16.40;99.80;;;;;;5092036;28;20180;-66
2024/03/21 09:47:50;;;;;;;11.80;10.70;;;16.40;99.90;;;;;;5073483;28;20212;-63
2024/03/21 09:50:18;;;;;;;12.17;11.07;;;16.60;99.90;;;;;;5092062;28;20442;-63
2024/03/21 09:52:44;;;;;;;12.07;10.87;;;16.70;99.90;;;;;;5091915;28;20463;-62
2024/03/21 09:55:14;;;;;;;11.53;10.53;;;16.80;98.90;;;;;;5090991;28;20402;-62
2024/03/21 09:57:41;;;;;;;12.30;10.33;;;16.90;97.30;;;;;;5088555;28;20184;-62
2024/03/21 10:00:15;;;;;;;14.07;9.87;;;17.00;96.70;;;;;;5091290;28;20929;-62
2024/03/21 10:02:55;;;;;;;9.77;8.87;;;17.20;96.50;;;;;;5091638;28;20991;-62
2024/03/21 10:05:23;;;;;;;10.40;9.47;;;17.40;96.50;;;;;;5108299;28;20395;-62
2024/03/21 10:07:49;;;;;;;10.03;9.17;;;17.50;97.20;;;;;;5092464;28;20580;-62
2024/03/21 10:10:15;;;;;;;11.60;10.37;;;17.70;95.30;;;;;;5091915;28;20769;-62
2024/03/21 10:12:41;;;;;;;11.87;10.77;;;17.80;95.00;;;;;;5092399;28;20402;-62
2024/03/21 10:15:11;;;;;;;11.27;10.37;;;18.00;95.40;;;;;;5073619;28;20394;-62
2024/03/21 10:17:37;;;;;;;12.83;11.63;;;18.10;94.70;;;;;;5092458;28;20621;-62
2024/03/21 10:20:03;;;;;;;13.53;12.23;;;18.10;93.00;;;;;;5091854;28;20451;-62
2024/03/21 10:22:32;;;;;;;12.60;11.50;;;18.00;94.30;;;;;;5092367;28;20164;-62
2024/03/21 10:24:58;;;;;;;14.40;12.30;;;18.00;94.50;;;;;;5092096;28;20421;-62
2024/03/21 10:27:24;;;;;;;14.10;12.80;;;18.00;94.10;;;;;;5074261;28;20445;-62
2024/03/21 10:29:50;;;;;;;13.63;12.40;;;17.90;94.20;;;;;;5092550;28;20411;-62
2024/03/21 10:32:20;;;;;;;13.53;12.30;;;17.80;94.30;;;;;;5073467;28;20417;-62
2024/03/21 10:34:50;;;;;;;14.80;13.50;;;17.80;93.90;;;;;;5092356;28;20383;-62
2024/03/21 10:37:21;;;;;;;14.23;13.00;;;17.80;93.30;;;;;;5091206;28;20450;-62
2024/03/21 10:39:48;;;;;;;14.60;13.30;;;17.80;93.70;;;;;;5092076;28;20437;-62
2024/03/21 10:42:21;;;;;;;14.50;13.20;;;17.70;94.60;;;;;;5077223;28;20796;-62
2024/03/21 10:44:49;;;;;;;12.90;11.80;;;17.80;93.90;;;;;;5096022;28;20391;-62
2024/03/21 10:47:16;;;;;;;12.30;11.30;;;17.80;93.60;;;;;;5095489;28;20442;-62
2024/03/21 10:49:42;;;;;;;13.63;12.43;;;17.70;93.30;;;;;;5095865;28;20399;-62
2024/03/21 10:52:13;;;;;;;13.80;12.50;;;17.60;92.80;;;;;;5095132;28;20748;-62
2024/03/21 10:54:39;;;;;;;15.83;13.40;;;17.70;94.60;;;;;;5095589;28;20918;-62
2024/03/21 10:57:34;;;;;;;16.40;13.40;;;17.70;93.10;;;;;;5095133;28;20434;-62
2024/03/21 11:00:14;;;;;;;13.37;12.27;;;17.70;93.70;;;;;;5081884;28;20777;-61
2024/03/21 11:02:42;;;;;;;12.87;11.70;;;17.80;92.90;;;;;;5095490;28;20401;-62
2024/03/21 11:05:12;;;;;;;13.10;11.90;;;17.90;93.70;;;;;;5094905;28;20815;-62
2024/03/21 11:07:39;;;;;;;10.77;9.80;;;17.90;92.20;;;;;;5095736;28;20756;-62
2024/03/21 11:10:06;;;;;;;13.07;11.87;;;17.70;92.80;;;;;;5094587;28;20885;-62
2024/03/21 11:12:34;;;;;;;14.30;12.90;;;17.70;93.50;;;;;;5095507;28;20403;-62
2024/03/21 11:14:59;;;;;;;12.80;11.50;;;17.70;92.90;;;;;;5094826;28;20439;-62
2024/03/21 11:17:25;;;;;;;10.67;9.77;;;17.60;94.50;;;;;;5077095;28;20406;-62
2024/03/21 11:19:51;;;;;;;11.90;11.00;;;17.70;94.60;;;;;;5095340;28;20164;-62
2024/03/21 11:22:18;;;;;;;11.13;10.20;;;17.90;93.50;;;;;;5094711;28;20164;-62
2024/03/21 11:24:44;;;;;;;13.00;11.70;;;17.90;95.60;;;;;;5095200;28;20499;-61
2024/03/21 11:27:17;;;;;;;13.10;11.77;;;18.00;93.70;;;;;;5094411;28;20756;-61
2024/03/21 11:29:43;;;;;;;12.63;11.63;;;18.00;93.70;;;;;;5095092;28;20411;-62
2024/03/21 11:32:09;;;;;;;15.90;14.33;;;18.00;94.30;;;;;;5094482;28;20402;-62
2024/03/21 11:34:39;;;;;;;15.63;14.23;;;18.00;92.70;;;;;;5095054;28;20733;-62
2024/03/21 11:37:10;;;;;;;17.73;15.40;;;18.00;91.80;;;;;;5094004;28;20453;-62
2024/03/21 11:39:39;;;;;;;16.93;15.33;;;18.00;92.80;;;;;;5095032;28;20386;-62
2024/03/21 11:42:12;;;;;;;17.67;16.07;;;18.20;92.40;;;;;;5094239;28;20402;-62
2024/03/21 11:44:39;;;;;;;17.77;16.17;;;18.20;93.10;;;;;;5094847;28;20477;-62
2024/03/21 11:47:12;;;;;;;16.40;14.90;;;18.50;92.90;;;;;;5093969;28;20394;-62
2024/03/21 11:49:39;;;;;;;18.07;16.47;;;18.60;92.20;;;;;;5095078;28;20898;-62
2024/03/21 11:52:06;;;;;;;16.60;14.90;;;18.70;91.60;;;;;;5093564;28;20444;-62
2024/03/21 11:54:32;;;;;;;17.00;15.40;;;18.80;90.90;;;;;;5094371;28;20886;-62
2024/03/21 11:56:59;;;;;;;16.07;14.73;;;18.80;90.80;;;;;;5094603;28;20445;-62
2024/03/21 11:59:34;;;;;;;14.47;13.07;;;18.70;91.20;;;;;;5093970;28;20485;-62
2024/03/21 12:02:00;;;;;;;13.53;12.23;;;18.90;91.30;;;;;;5094274;28;20873;-62
2024/03/21 12:04:27;;;;;;;13.60;12.50;;;19.00;91.90;;;;;;5093781;28;20386;-62
2024/03/21 12:06:53;;;;;;;13.07;11.63;;;19.20;92.20;;;;;;5094096;28;20172;-62
2024/03/21 12:09:19;;;;;;;15.77;13.80;;;19.30;90.00;;;;;;5092900;28;20435;-62
2024/03/21 12:11:45;;;;;;;14.53;13.10;;;19.40;89.10;;;;;;5093601;28;20438;-62
2024/03/21 12:14:11;;;;;;;15.10;13.70;;;19.40;86.90;;;;;;5093199;28;20226;-62
2024/03/21 12:16:38;;;;;;;17.90;14.80;;;19.40;87.90;;;;;;5094081;28;20168;-62
2024/03/21 12:19:04;;;;;;;18.40;15.13;;;19.40;88.10;;;;;;5093615;28;20172;-62
2024/03/21 12:21:29;;;;;;;21.73;14.80;;;19.40;87.50;;;;;;5094009;28;20865;-62
2024/03/21 12:23:55;;;;;;;13.77;12.67;;;19.40;87.20;;;;;;5093573;28;20407;-62
2024/03/21 12:26:21;;;;;;;16.13;14.40;;;19.50;85.30;;;;;;5093218;28;20537;-66
2024/03/21 12:28:47;;;;;;;11.77;10.77;;;19.60;90.70;;;;;;5075454;28;20192;-65
2024/03/21 12:31:14;;;;;;;17.43;12.10;;;19.70;97.00;;;;;;5093122;28;20172;-70
2024/03/21 12:33:40;;;;;;;12.03;10.80;;;19.80;93.60;;;;;;5093220;28;20996;-70